This is the latest recevied weather packets stored in our database for station/object EA4URC-13. If no packets are shown the sender has not sent any weather packets the latest 10 day(s).
| Time | Temp. | Humidity | Pressure | Rain* | Wind** | Luminosity | Snow |
|---|---|---|---|---|---|---|---|
| 1777390119 | 18.89° C | 36% | 999.4 hPa | - | - | - | - |
| 1777389219 | 19.44° C | 36% | 999.5 hPa | - | - | - | - |
| 1777388319 | 18.89° C | 36% | 999.8 hPa | - | - | - | - |
| 1777387419 | 19.44° C | 36% | 999.8 hPa | - | - | - | - |
| 1777385619 | 19.44° C | 36% | 1000.3 hPa | - | - | - | - |
| 1777384719 | 19.44° C | 35% | 1000.4 hPa | - | - | - | - |
| 1777383819 | 21.11° C | 34% | 999.9 hPa | - | - | - | - |
| 1777382919 | 20.56° C | 34% | 1000.1 hPa | - | - | - | - |
| 1777382019 | 20.56° C | 34% | 1000.2 hPa | - | - | - | - |
| 1777381119 | 20.56° C | 34% | 1000.2 hPa | - | - | - | - |
| 1777380219 | 20.56° C | 33% | 1000.4 hPa | - | - | - | - |
| 1777379319 | 21.11° C | 33% | 1000.2 hPa | - | - | - | - |
| 1777378451 | 22.22° C | 32% | 1000 hPa | - | - | - | - |
| 1777378419 | 22.22° C | 32% | 1000 hPa | - | - | - | - |
| 1777377519 | 21.11° C | 33% | 1000.3 hPa | - | - | - | - |
| 1777376619 | 21.67° C | 33% | 1000.3 hPa | - | - | - | - |
| 1777375719 | 22.22° C | 31% | 1000.3 hPa | - | - | - | - |
| 1777374819 | 20.56° C | 32% | 1001.1 hPa | - | - | - | - |
| 1777373919 | 20.56° C | 31% | 1001.3 hPa | - | - | - | - |
| 1777373018 | 19.44° C | 32% | 1001.9 hPa | - | - | - | - |
| 1777372119 | 19.44° C | 31% | 1002.1 hPa | - | - | - | - |
| 1777371219 | 18.89° C | 30% | 1002.4 hPa | - | - | - | - |
| 1777370319 | 19.44° C | 30% | 1002.2 hPa | - | - | - | - |
| 1777369419 | 17.78° C | 30% | 1003.2 hPa | - | - | - | - |
| 1777368518 | 16.67° C | 34% | 1003.9 hPa | - | - | - | - |
* Rain since midnight (hover to see other rain measurements)
** Current wind speed in m/s (hover to see current wind gust speed)